Time;durP1;ratioP1;P1;durP2;ratioP2;P2;SDS_P1;SDS_P2;PMS_P1;PMS_P2;Temp;Humidity;BMP_temperature;BMP_pressure;BME280_temperature;BME280_humidity;BME280_pressure;Samples;Min_cycle;Max_cycle;Signal;HPM_P1;HPM_P2
2021/12/16 00:08:17;;;;;;;28.30;17.90;;;;;;;;;;5006181;28;20048;-81
2021/12/16 00:11:01;;;;;;;27.88;18.05;;;;;;;;;;5016420;28;20051;-82
2021/12/16 00:30:10;;;;;;;26.02;16.40;;;;;;;;;;5031155;28;20043;-81
2021/12/16 00:32:52;;;;;;;30.98;16.83;;;;;;;;;;5012120;28;20049;-81
2021/12/16 00:35:20;;;;;;;27.70;17.73;;;;;;;;;;5004761;28;20056;-81
2021/12/16 00:37:46;;;;;;;25.40;17.23;;;;;;;;;;5013974;28;20041;-81
2021/12/16 00:40:12;;;;;;;26.85;18.35;;;;;;;;;;5000836;28;20048;-81
2021/12/16 00:42:50;;;;;;;27.15;18.30;;;;;;;;;;5005153;28;20041;-82
2021/12/16 00:48:08;;;;;;;29.50;18.33;;;;;;;;;;5037823;28;20084;-82
2021/12/16 00:55:49;;;;;;;29.90;17.85;;;;;;;;;;5015374;28;20041;-81
2021/12/16 00:58:17;;;;;;;28.48;18.30;;;;;;;;;;4996054;28;20538;-81
2021/12/16 01:00:51;;;;;;;27.35;18.63;;;;;;;;;;5001795;28;20923;-82
2021/12/16 01:03:26;;;;;;;35.70;19.80;;;;;;;;;;5000152;28;20049;-81
2021/12/16 01:51:35;;;;;;;34.58;21.80;;;;;;;;;;4993537;28;20081;-82
2021/12/16 01:56:52;;;;;;;37.65;22.52;;;;;;;;;;5013722;28;20122;-82
2021/12/16 01:59:21;;;;;;;36.53;23.33;;;;;;;;;;4977307;28;21288;-82
2021/12/16 02:01:47;;;;;;;36.10;22.75;;;;;;;;;;5012138;28;22103;-82
2021/12/16 02:04:26;;;;;;;42.65;23.95;;;;;;;;;;4989944;28;20479;-81
2021/12/16 02:09:37;;;;;;;36.75;22.58;;;;;;;;;;5000682;28;19925;-82
2021/12/16 02:28:46;;;;;;;38.72;24.65;;;;;;;;;;4993702;28;20060;-81
2021/12/16 02:34:04;;;;;;;42.05;24.67;;;;;;;;;;5010623;28;20057;-82
2021/12/16 02:36:36;;;;;;;36.35;23.52;;;;;;;;;;5005612;28;20251;-81
2021/12/16 02:39:05;;;;;;;38.53;24.25;;;;;;;;;;5009674;28;20076;-81
2021/12/16 02:41:31;;;;;;;39.78;24.55;;;;;;;;;;5012197;28;20165;-82
2021/12/16 02:49:17;;;;;;;37.33;25.42;;;;;;;;;;5007569;28;20057;-81
2021/12/16 02:51:44;;;;;;;36.95;24.65;;;;;;;;;;5011927;28;20041;-81
2021/12/16 02:54:10;;;;;;;40.97;25.75;;;;;;;;;;4995420;28;20068;-82
2021/12/16 02:56:37;;;;;;;40.22;24.98;;;;;;;;;;4982993;28;20100;-81
2021/12/16 02:59:04;;;;;;;38.45;23.90;;;;;;;;;;4995204;28;20137;-81
2021/12/16 03:01:33;;;;;;;42.95;24.67;;;;;;;;;;4976569;28;20046;-82
2021/12/16 03:04:03;;;;;;;42.75;24.48;;;;;;;;;;4997928;28;20052;-81
2021/12/16 03:06:30;;;;;;;45.05;24.85;;;;;;;;;;4981155;28;20511;-82
2021/12/16 03:08:57;;;;;;;46.05;24.80;;;;;;;;;;5013253;28;20080;-82
2021/12/16 03:11:31;;;;;;;40.83;24.10;;;;;;;;;;5006692;28;20045;-81
2021/12/16 03:16:48;;;;;;;41.83;24.88;;;;;;;;;;4995657;28;22571;-81
2021/12/16 03:21:57;;;;;;;46.60;25.67;;;;;;;;;;4999402;28;20046;-80
2021/12/16 03:25:03;;;;;;;38.33;24.98;;;;;;;;;;5012631;28;20273;-80
2021/12/16 03:35:28;;;;;;;41.45;25.50;;;;;;;;;;4995510;28;20080;-79
2021/12/16 03:37:56;;;;;;;41.97;25.58;;;;;;;;;;5014519;28;20045;-80
2021/12/16 03:40:22;;;;;;;37.50;24.65;;;;;;;;;;4972829;28;20053;-80
2021/12/16 03:42:50;;;;;;;38.53;25.45;;;;;;;;;;5010285;28;20049;-80
2021/12/16 03:48:11;;;;;;;41.40;24.67;;;;;;;;;;5008360;28;20050;-80
2021/12/16 03:50:37;;;;;;;45.75;25.92;;;;;;;;;;4980320;28;20554;-79
2021/12/16 03:53:04;;;;;;;40.38;25.52;;;;;;;;;;5003445;28;20053;-80
2021/12/16 03:55:30;;;;;;;41.33;25.77;;;;;;;;;;5009380;28;20520;-80
2021/12/16 03:57:56;;;;;;;43.70;26.55;;;;;;;;;;5009649;28;20045;-79
2021/12/16 04:00:25;;;;;;;41.10;26.38;;;;;;;;;;4989135;28;20053;-79
2021/12/16 04:02:51;;;;;;;37.05;24.95;;;;;;;;;;5010881;28;20045;-80
2021/12/16 04:05:21;;;;;;;40.95;25.88;;;;;;;;;;4992939;28;20049;-79
2021/12/16 04:07:48;;;;;;;48.28;25.65;;;;;;;;;;5008868;28;20579;-79
2021/12/16 04:10:34;;;;;;;40.78;25.67;;;;;;;;;;5010319;28;20373;-80
2021/12/16 04:13:03;;;;;;;42.17;25.70;;;;;;;;;;5008237;28;20058;-80
2021/12/16 04:15:30;;;;;;;40.15;24.20;;;;;;;;;;5008329;28;20500;-80
2021/12/16 04:17:56;;;;;;;41.72;25.67;;;;;;;;;;5008159;28;20045;-80
2021/12/16 04:20:22;;;;;;;42.83;26.95;;;;;;;;;;5004613;28;20374;-80
2021/12/16 04:22:48;;;;;;;39.53;25.73;;;;;;;;;;5007753;28;20211;-80
2021/12/16 04:25:16;;;;;;;42.33;25.42;;;;;;;;;;5023211;28;20107;-80
2021/12/16 04:27:42;;;;;;;43.35;26.67;;;;;;;;;;5006056;28;20465;-79
2021/12/16 04:30:09;;;;;;;47.13;27.02;;;;;;;;;;4987862;28;20102;-79
2021/12/16 04:32:36;;;;;;;48.72;27.58;;;;;;;;;;5006061;28;20129;-79
2021/12/16 04:35:02;;;;;;;43.63;27.65;;;;;;;;;;5025811;28;20471;-80
2021/12/16 04:37:28;;;;;;;40.60;26.17;;;;;;;;;;5007566;28;20047;-79
2021/12/16 04:39:54;;;;;;;56.95;28.35;;;;;;;;;;5009866;28;20048;-79
2021/12/16 04:42:23;;;;;;;45.83;27.25;;;;;;;;;;5006037;28;20080;-79
2021/12/16 04:44:50;;;;;;;40.83;26.92;;;;;;;;;;5014086;28;20695;-79
2021/12/16 04:47:16;;;;;;;44.75;26.70;;;;;;;;;;5004836;28;20049;-79
2021/12/16 04:49:42;;;;;;;42.20;27.60;;;;;;;;;;5010873;28;20038;-80
2021/12/16 04:52:09;;;;;;;44.95;27.40;;;;;;;;;;4987767;28;20057;-79
2021/12/16 04:54:35;;;;;;;54.30;28.67;;;;;;;;;;4988997;28;20050;-80
2021/12/16 04:57:01;;;;;;;51.47;27.33;;;;;;;;;;5010676;28;20424;-79
2021/12/16 04:59:28;;;;;;;48.97;27.42;;;;;;;;;;4964540;28;20404;-80
2021/12/16 05:01:59;;;;;;;44.28;26.70;;;;;;;;;;4990611;28;20041;-80
2021/12/16 05:04:25;;;;;;;49.70;27.15;;;;;;;;;;4973116;28;20053;-80
2021/12/16 05:06:52;;;;;;;51.17;29.10;;;;;;;;;;4988976;28;20042;-80
2021/12/16 05:09:54;;;;;;;49.97;29.02;;;;;;;;;;4985462;28;20061;-80
2021/12/16 05:12:08;;;;;;;44.83;28.35;;;;;;;;;;4973983;28;20050;-80
2021/12/16 05:14:34;;;;;;;52.75;31.17;;;;;;;;;;4990683;28;20037;-80
2021/12/16 05:17:03;;;;;;;49.95;28.52;;;;;;;;;;4986758;28;20092;-80
2021/12/16 05:19:29;;;;;;;45.25;27.73;;;;;;;;;;4991474;28;20057;-80
2021/12/16 05:24:13;;;;;;;51.17;29.50;;;;;;;;;;4991113;28;20486;-86
2021/12/16 05:24:42;;;;;;;52.05;28.80;;;;;;;;;;4990794;28;20056;-85
2021/12/16 05:27:09;;;;;;;52.40;31.08;;;;;;;;;;4975712;28;20055;-84
2021/12/16 05:29:36;;;;;;;52.15;30.63;;;;;;;;;;4962134;28;20049;-85
2021/12/16 05:32:03;;;;;;;61.05;32.67;;;;;;;;;;4960025;28;20132;-85
2021/12/16 05:34:29;;;;;;;52.15;29.10;;;;;;;;;;4972254;28;20041;-85
2021/12/16 05:36:59;;;;;;;50.20;28.70;;;;;;;;;;4991711;28;20490;-86
2021/12/16 05:39:26;;;;;;;47.53;29.08;;;;;;;;;;4975302;28;20108;-85
2021/12/16 05:41:52;;;;;;;48.28;28.80;;;;;;;;;;5012118;28;20100;-86
2021/12/16 05:44:18;;;;;;;46.70;30.23;;;;;;;;;;4996943;28;20041;-86
2021/12/16 05:46:45;;;;;;;56.65;31.80;;;;;;;;;;4962976;28;20065;-86
2021/12/16 05:49:12;;;;;;;52.80;28.95;;;;;;;;;;4979676;28;20095;-85
2021/12/16 05:51:42;;;;;;;54.70;30.83;;;;;;;;;;4969474;28;20052;-86
2021/12/16 05:54:08;;;;;;;52.40;29.27;;;;;;;;;;4960273;28;20041;-87
2021/12/16 05:56:35;;;;;;;50.25;28.20;;;;;;;;;;4965727;28;20037;-86
2021/12/16 05:59:01;;;;;;;47.33;29.25;;;;;;;;;;4966985;28;20048;-85
2021/12/16 06:01:28;;;;;;;59.80;30.52;;;;;;;;;;4965865;28;20073;-87
2021/12/16 06:03:54;;;;;;;54.75;31.83;;;;;;;;;;4995515;28;20875;-86
2021/12/16 06:06:21;;;;;;;56.67;31.30;;;;;;;;;;4974619;28;20148;-86
2021/12/16 06:08:47;;;;;;;51.20;31.73;;;;;;;;;;4964214;28;20041;-85
2021/12/16 06:11:21;;;;;;;51.75;30.65;;;;;;;;;;4975741;28;20978;-85
2021/12/16 06:28:08;;;;;;;50.35;30.10;;;;;;;;;;4977913;28;20049;-84
2021/12/16 06:30:42;;;;;;;49.03;29.50;;;;;;;;;;4982280;28;20041;-84
2021/12/16 06:33:09;;;;;;;50.90;29.50;;;;;;;;;;4960141;28;20115;-84
2021/12/16 06:35:35;;;;;;;58.92;31.58;;;;;;;;;;4989916;28;20308;-83
2021/12/16 06:38:04;;;;;;;56.65;32.60;;;;;;;;;;4996458;28;20049;-83
2021/12/16 06:40:31;;;;;;;49.88;29.73;;;;;;;;;;4976732;28;20045;-83
2021/12/16 06:43:00;;;;;;;54.47;31.70;;;;;;;;;;4978508;28;20045;-83
2021/12/16 06:45:30;;;;;;;61.53;32.03;;;;;;;;;;4971071;28;22748;-81
2021/12/16 06:50:56;;;;;;;63.25;31.60;;;;;;;;;;4967414;28;20473;-82
2021/12/16 06:53:28;;;;;;;58.35;31.92;;;;;;;;;;4981723;28;20146;-83
2021/12/16 06:56:04;;;;;;;59.20;32.33;;;;;;;;;;4980941;28;20455;-84
2021/12/16 06:58:41;;;;;;;58.85;32.60;;;;;;;;;;4992226;28;20227;-84
2021/12/16 07:01:16;;;;;;;62.13;31.13;;;;;;;;;;4989146;28;20059;-81
2021/12/16 07:03:49;;;;;;;59.50;32.85;;;;;;;;;;4996342;28;20128;-84
2021/12/16 07:06:16;;;;;;;48.35;30.00;;;;;;;;;;4995076;28;20057;-84
2021/12/16 07:08:52;;;;;;;54.43;29.37;;;;;;;;;;5017265;28;20110;-84
2021/12/16 07:11:26;;;;;;;55.60;30.48;;;;;;;;;;4978104;28;20068;-84
2021/12/16 07:14:00;;;;;;;53.92;29.45;;;;;;;;;;4995564;28;20046;-85
2021/12/16 07:16:27;;;;;;;46.35;28.63;;;;;;;;;;4979295;28;20132;-85
2021/12/16 07:18:57;;;;;;;58.88;29.55;;;;;;;;;;4978857;28;20033;-84
2021/12/16 07:21:24;;;;;;;48.38;28.00;;;;;;;;;;4970568;28;20045;-85
2021/12/16 07:23:51;;;;;;;45.20;27.42;;;;;;;;;;4981762;28;20056;-83
2021/12/16 07:26:17;;;;;;;61.22;30.30;;;;;;;;;;4991726;28;20049;-83
2021/12/16 07:28:43;;;;;;;54.72;31.23;;;;;;;;;;4983984;28;20050;-82
2021/12/16 07:31:12;;;;;;;60.50;31.92;;;;;;;;;;4980873;28;20451;-82
2021/12/16 07:33:40;;;;;;;71.82;34.50;;;;;;;;;;4998640;28;20050;-82
2021/12/16 07:36:20;;;;;;;50.92;29.98;;;;;;;;;;4995542;28;20049;-82
2021/12/16 07:41:39;;;;;;;66.00;34.33;;;;;;;;;;5014589;28;20054;-83
2021/12/16 07:44:09;;;;;;;69.40;34.25;;;;;;;;;;4977455;28;20092;-82
2021/12/16 07:46:39;;;;;;;49.05;29.25;;;;;;;;;;4997974;28;20123;-83
2021/12/16 07:49:06;;;;;;;47.00;27.75;;;;;;;;;;5011462;28;20050;-80
2021/12/16 07:51:32;;;;;;;43.50;26.65;;;;;;;;;;5014933;28;20041;-81
2021/12/16 07:53:58;;;;;;;45.00;27.70;;;;;;;;;;5031475;28;20068;-81
2021/12/16 07:56:24;;;;;;;54.83;30.83;;;;;;;;;;5016626;28;20374;-81
2021/12/16 07:58:51;;;;;;;54.45;33.03;;;;;;;;;;5019472;28;20037;-82
2021/12/16 08:01:17;;;;;;;40.03;26.42;;;;;;;;;;5026208;28;20049;-83
2021/12/16 08:03:43;;;;;;;44.40;28.15;;;;;;;;;;5009116;28;20049;-83
2021/12/16 08:06:12;;;;;;;40.58;27.20;;;;;;;;;;5002189;28;20057;-83
2021/12/16 08:08:38;;;;;;;43.47;27.10;;;;;;;;;;5005573;28;20131;-83
2021/12/16 08:11:04;;;;;;;49.47;30.38;;;;;;;;;;4993949;28;20055;-83
2021/12/16 08:13:30;;;;;;;53.00;31.27;;;;;;;;;;5006368;28;20072;-83
2021/12/16 08:15:59;;;;;;;44.40;27.05;;;;;;;;;;5039818;28;20396;-83
2021/12/16 08:18:25;;;;;;;47.65;29.27;;;;;;;;;;5010009;28;20235;-83
2021/12/16 08:20:51;;;;;;;48.83;28.75;;;;;;;;;;5021563;28;20041;-83
2021/12/16 08:23:17;;;;;;;50.97;29.13;;;;;;;;;;5033969;28;20502;-83
2021/12/16 08:25:44;;;;;;;61.53;31.88;;;;;;;;;;5004509;28;20040;-83
2021/12/16 08:28:10;;;;;;;48.42;29.05;;;;;;;;;;5004713;28;20103;-83
2021/12/16 08:30:38;;;;;;;55.75;30.95;;;;;;;;;;5007858;28;20290;-83
2021/12/16 08:33:10;;;;;;;41.80;27.35;;;;;;;;;;5019753;28;20037;-83
2021/12/16 08:35:37;;;;;;;40.72;27.25;;;;;;;;;;5020254;28;20135;-83
2021/12/16 08:38:03;;;;;;;57.00;31.25;;;;;;;;;;5004577;28;20136;-83
2021/12/16 08:40:30;;;;;;;52.30;31.35;;;;;;;;;;5020789;28;20041;-83
2021/12/16 08:42:57;;;;;;;45.92;28.45;;;;;;;;;;5001774;28;20041;-83
2021/12/16 08:45:25;;;;;;;55.47;29.58;;;;;;;;;;5016547;28;20049;-84
2021/12/16 08:47:51;;;;;;;75.13;34.67;;;;;;;;;;5015784;28;20044;-84
2021/12/16 08:50:18;;;;;;;65.32;33.90;;;;;;;;;;4999655;28;20037;-84
2021/12/16 08:52:44;;;;;;;53.80;31.05;;;;;;;;;;5000231;28;21533;-84
2021/12/16 08:55:10;;;;;;;56.47;31.38;;;;;;;;;;5008408;28;20052;-84
2021/12/16 08:57:36;;;;;;;65.15;34.28;;;;;;;;;;4987976;28;20146;-84
2021/12/16 09:00:04;;;;;;;72.30;35.50;;;;;;;;;;5007907;28;20068;-84
2021/12/16 09:02:30;;;;;;;85.47;41.90;;;;;;;;;;5021280;28;20044;-83
2021/12/16 09:04:56;;;;;;;91.70;43.38;;;;;;;;;;5000809;28;20049;-84
2021/12/16 09:07:22;;;;;;;115.78;46.22;;;;;;;;;;4984274;28;20056;-83
2021/12/16 09:09:49;;;;;;;94.50;42.00;;;;;;;;;;4988420;28;20449;-84
2021/12/16 09:12:38;;;;;;;102.65;43.63;;;;;;;;;;4997570;28;20051;-84
2021/12/16 09:15:06;;;;;;;117.95;46.72;;;;;;;;;;5023599;28;20415;-84
2021/12/16 09:17:32;;;;;;;102.75;45.28;;;;;;;;;;4991901;28;20041;-84
2021/12/16 09:19:58;;;;;;;108.18;45.38;;;;;;;;;;5019088;28;20128;-84
2021/12/16 09:22:25;;;;;;;103.32;42.25;;;;;;;;;;5016611;28;20045;-84
2021/12/16 09:24:51;;;;;;;93.85;41.00;;;;;;;;;;5023181;28;20049;-84
2021/12/16 09:27:17;;;;;;;101.43;42.72;;;;;;;;;;4985062;28;20061;-85
2021/12/16 09:29:43;;;;;;;91.38;42.28;;;;;;;;;;5019816;28;20041;-84
2021/12/16 09:32:10;;;;;;;91.80;40.22;;;;;;;;;;4985768;28;20076;-84
2021/12/16 09:34:37;;;;;;;98.90;42.75;;;;;;;;;;4990195;28;20133;-84
2021/12/16 09:37:03;;;;;;;90.50;39.22;;;;;;;;;;5036895;28;20839;-84
2021/12/16 09:39:29;;;;;;;88.00;39.30;;;;;;;;;;4990863;28;20127;-84
2021/12/16 09:41:57;;;;;;;100.13;41.97;;;;;;;;;;4988739;28;20037;-84
2021/12/16 09:44:23;;;;;;;93.20;41.28;;;;;;;;;;5009369;28;20479;-84
2021/12/16 09:46:50;;;;;;;83.45;39.90;;;;;;;;;;5004424;28;20045;-84
2021/12/16 09:49:17;;;;;;;102.85;42.80;;;;;;;;;;4985290;28;20053;-84
2021/12/16 09:51:45;;;;;;;87.60;40.50;;;;;;;;;;4983022;28;20067;-84
2021/12/16 09:54:12;;;;;;;94.40;40.70;;;;;;;;;;5016956;28;20051;-84
2021/12/16 09:56:38;;;;;;;101.90;42.85;;;;;;;;;;5021184;28;20139;-84
2021/12/16 09:59:08;;;;;;;120.50;44.25;;;;;;;;;;5003993;28;20044;-84
2021/12/16 10:01:34;;;;;;;94.60;41.03;;;;;;;;;;4999840;28;20087;-84
2021/12/16 10:04:03;;;;;;;112.10;41.00;;;;;;;;;;5007861;28;20064;-84
2021/12/16 10:06:30;;;;;;;82.38;38.58;;;;;;;;;;4989761;28;20768;-84
2021/12/16 10:08:59;;;;;;;92.45;38.20;;;;;;;;;;4991253;28;20385;-84
2021/12/16 10:11:25;;;;;;;77.05;35.92;;;;;;;;;;4984260;28;20056;-84
2021/12/16 10:19:10;;;;;;;83.05;37.40;;;;;;;;;;4971819;28;20098;-84
2021/12/16 10:21:38;;;;;;;88.32;36.55;;;;;;;;;;5035534;28;21357;-85
2021/12/16 10:24:05;;;;;;;99.60;40.60;;;;;;;;;;5034589;28;20033;-84
2021/12/16 10:26:32;;;;;;;83.30;36.75;;;;;;;;;;5036725;28;20045;-84
2021/12/16 10:28:58;;;;;;;78.18;35.25;;;;;;;;;;5034922;28;20045;-84
2021/12/16 10:31:28;;;;;;;79.28;35.53;;;;;;;;;;5018521;28;20056;-84
2021/12/16 10:33:59;;;;;;;93.75;38.72;;;;;;;;;;5024533;28;20040;-84
2021/12/16 10:36:26;;;;;;;120.40;40.65;;;;;;;;;;4998484;28;20155;-84
2021/12/16 10:39:01;;;;;;;98.40;37.45;;;;;;;;;;5016993;28;20060;-84
2021/12/16 10:41:27;;;;;;;73.70;35.40;;;;;;;;;;5017028;28;20045;-84
2021/12/16 10:43:54;;;;;;;92.90;37.17;;;;;;;;;;5020670;28;20106;-85
2021/12/16 10:46:22;;;;;;;92.53;37.97;;;;;;;;;;5019330;28;20056;-84
2021/12/16 10:48:49;;;;;;;87.47;35.67;;;;;;;;;;5039529;28;20052;-85
2021/12/16 10:51:18;;;;;;;76.75;33.33;;;;;;;;;;5016834;28;20040;-85
2021/12/16 10:53:53;;;;;;;83.97;35.10;;;;;;;;;;5018928;28;20065;-85
2021/12/16 10:56:20;;;;;;;76.72;35.72;;;;;;;;;;5015440;28;20727;-85
2021/12/16 10:58:51;;;;;;;82.18;35.75;;;;;;;;;;5000666;28;20053;-83
2021/12/16 11:01:30;;;;;;;80.10;36.17;;;;;;;;;;5016464;28;20071;-85
2021/12/16 11:03:56;;;;;;;88.70;35.05;;;;;;;;;;4998655;28;20053;-85
2021/12/16 11:06:26;;;;;;;81.32;35.28;;;;;;;;;;4964771;28;20053;-84
2021/12/16 11:08:52;;;;;;;99.53;39.05;;;;;;;;;;5012334;28;20130;-84
2021/12/16 11:11:26;;;;;;;77.90;35.33;;;;;;;;;;5014888;28;20103;-84
2021/12/16 11:14:01;;;;;;;84.63;36.03;;;;;;;;;;4996007;28;20101;-85
2021/12/16 11:16:34;;;;;;;85.85;35.30;;;;;;;;;;4991063;28;20061;-84
2021/12/16 11:19:00;;;;;;;81.55;35.22;;;;;;;;;;5011129;28;20045;-84
2021/12/16 11:21:40;;;;;;;93.50;37.92;;;;;;;;;;4963024;28;20037;-84
2021/12/16 11:24:23;;;;;;;80.60;36.28;;;;;;;;;;4995236;28;20048;-84
2021/12/16 11:26:55;;;;;;;87.13;36.17;;;;;;;;;;4972077;28;20043;-85
2021/12/16 11:29:28;;;;;;;71.93;32.28;;;;;;;;;;4968935;28;20115;-84
2021/12/16 11:31:56;;;;;;;72.90;32.63;;;;;;;;;;4984256;28;20041;-84
2021/12/16 11:34:32;;;;;;;74.28;34.00;;;;;;;;;;4963727;28;20050;-85
2021/12/16 11:36:58;;;;;;;78.68;31.63;;;;;;;;;;4968238;28;20086;-85
2021/12/16 11:39:27;;;;;;;76.70;33.70;;;;;;;;;;4976417;28;20109;-84
2021/12/16 11:42:00;;;;;;;70.72;32.35;;;;;;;;;;4984559;28;20076;-80
2021/12/16 11:44:34;;;;;;;81.10;32.95;;;;;;;;;;4981116;28;20045;-80
2021/12/16 11:47:07;;;;;;;75.70;33.50;;;;;;;;;;5013497;28;20057;-79
2021/12/16 11:49:34;;;;;;;65.35;30.83;;;;;;;;;;4982038;28;20471;-80
2021/12/16 11:52:03;;;;;;;63.90;30.20;;;;;;;;;;4968347;28;20078;-80
2021/12/16 11:54:38;;;;;;;58.50;28.67;;;;;;;;;;5014336;28;20316;-79
2021/12/16 11:57:04;;;;;;;55.92;27.15;;;;;;;;;;5015450;28;20045;-80
2021/12/16 11:59:35;;;;;;;62.42;29.30;;;;;;;;;;5018092;28;20040;-80
2021/12/16 12:02:01;;;;;;;61.20;28.27;;;;;;;;;;5012469;28;20045;-80
2021/12/16 12:04:38;;;;;;;58.83;28.13;;;;;;;;;;4997431;28;20041;-79
2021/12/16 12:07:11;;;;;;;54.67;27.90;;;;;;;;;;4995013;28;20056;-79
2021/12/16 12:09:39;;;;;;;57.30;27.98;;;;;;;;;;5000357;28;20036;-80
2021/12/16 12:12:05;;;;;;;57.67;29.70;;;;;;;;;;4986105;28;20079;-79
2021/12/16 12:14:32;;;;;;;59.78;28.73;;;;;;;;;;4984905;28;20495;-79
2021/12/16 12:17:02;;;;;;;63.33;29.08;;;;;;;;;;4998410;28;20052;-79
2021/12/16 12:19:29;;;;;;;68.40;30.20;;;;;;;;;;5001612;28;20048;-79
2021/12/16 12:22:00;;;;;;;63.97;30.10;;;;;;;;;;5001945;28;20404;-80
2021/12/16 12:24:27;;;;;;;54.15;26.52;;;;;;;;;;5000307;28;20071;-80
2021/12/16 12:26:54;;;;;;;58.58;29.23;;;;;;;;;;5019132;28;20048;-79
2021/12/16 12:29:28;;;;;;;61.30;28.10;;;;;;;;;;4983460;28;20048;-79
2021/12/16 12:32:14;;;;;;;63.13;27.08;;;;;;;;;;5000029;28;20566;-80
2021/12/16 12:34:42;;;;;;;69.10;29.02;;;;;;;;;;5004284;28;20076;-79
2021/12/16 12:37:09;;;;;;;60.95;28.58;;;;;;;;;;4983739;28;20051;-80
2021/12/16 12:39:38;;;;;;;69.32;31.00;;;;;;;;;;5016356;28;20120;-79
2021/12/16 12:42:05;;;;;;;63.38;29.63;;;;;;;;;;4987012;28;20045;-79
2021/12/16 12:44:31;;;;;;;64.68;29.58;;;;;;;;;;5021187;28;20064;-79
2021/12/16 12:47:03;;;;;;;59.97;27.98;;;;;;;;;;4986286;28;20511;-80
2021/12/16 12:49:30;;;;;;;69.45;28.10;;;;;;;;;;4999706;28;20492;-80
2021/12/16 12:52:23;;;;;;;64.30;27.42;;;;;;;;;;4985951;28;20040;-80
2021/12/16 12:55:10;;;;;;;62.75;27.80;;;;;;;;;;5016858;28;20045;-79
2021/12/16 12:57:37;;;;;;;62.03;26.48;;;;;;;;;;4985334;28;20041;-80
2021/12/16 13:00:04;;;;;;;59.25;26.02;;;;;;;;;;5032113;28;20049;-80
2021/12/16 13:02:34;;;;;;;47.88;25.20;;;;;;;;;;4998339;28;20041;-80
2021/12/16 13:05:00;;;;;;;59.70;25.20;;;;;;;;;;4986957;28;20064;-80
2021/12/16 13:07:43;;;;;;;59.10;25.08;;;;;;;;;;5011772;28;20373;-78
2021/12/16 13:10:25;;;;;;;53.63;24.23;;;;;;;;;;4999663;28;20407;-78
2021/12/16 13:13:02;;;;;;;55.22;24.15;;;;;;;;;;4997315;28;20055;-77
2021/12/16 13:23:42;;;;;;;50.70;22.83;;;;;;;;;;5031959;28;20044;-78
2021/12/16 13:31:08;;;;;;;49.03;21.00;;;;;;;;;;5018500;28;20071;-78
2021/12/16 13:33:46;;;;;;;48.75;22.15;;;;;;;;;;4999744;28;20170;-80
2021/12/16 13:36:26;;;;;;;41.22;19.65;;;;;;;;;;5029703;28;20067;-78
2021/12/16 13:38:52;;;;;;;41.85;19.67;;;;;;;;;;5022212;28;20037;-79
2021/12/16 13:41:20;;;;;;;53.33;22.13;;;;;;;;;;5014708;28;20048;-78
2021/12/16 13:43:57;;;;;;;49.40;21.83;;;;;;;;;;5033606;28;20440;-78
2021/12/16 14:03:14;;;;;;;57.08;22.67;;;;;;;;;;5034780;28;20128;-78
2021/12/16 14:08:30;;;;;;;59.90;21.92;;;;;;;;;;5021427;28;20120;-78
2021/12/16 14:11:00;;;;;;;50.72;22.48;;;;;;;;;;5024474;28;20041;-78
2021/12/16 14:16:23;;;;;;;62.92;24.90;;;;;;;;;;5035850;28;20082;-78
2021/12/16 14:41:12;;;;;;;66.65;24.35;;;;;;;;;;5038493;28;20116;-78
2021/12/16 14:43:56;;;;;;;63.55;22.65;;;;;;;;;;5012453;28;20476;-77
2021/12/16 14:46:25;;;;;;;62.75;24.05;;;;;;;;;;5035698;28;20037;-78
2021/12/16 14:48:51;;;;;;;50.95;20.98;;;;;;;;;;5040328;28;20127;-78
2021/12/16 14:51:18;;;;;;;55.50;22.48;;;;;;;;;;5016491;28;20095;-79
2021/12/16 14:53:45;;;;;;;51.35;21.33;;;;;;;;;;5032023;28;20452;-79
2021/12/16 14:56:12;;;;;;;51.15;20.63;;;;;;;;;;5034121;28;20106;-79
2021/12/16 14:58:38;;;;;;;44.08;19.45;;;;;;;;;;5005146;28;20040;-80
2021/12/16 15:01:08;;;;;;;43.63;20.10;;;;;;;;;;5022842;28;20072;-80
2021/12/16 15:03:38;;;;;;;44.28;19.48;;;;;;;;;;5024829;28;20098;-79
2021/12/16 15:06:09;;;;;;;43.05;20.35;;;;;;;;;;4984402;28;20041;-79
2021/12/16 15:08:43;;;;;;;44.00;20.95;;;;;;;;;;5025380;28;20488;-78
2021/12/16 15:11:11;;;;;;;41.60;20.35;;;;;;;;;;5028048;28;20585;-78
2021/12/16 15:13:44;;;;;;;45.28;19.95;;;;;;;;;;5034221;28;20052;-78
2021/12/16 15:16:44;;;;;;;50.63;21.35;;;;;;;;;;5027936;28;20098;-78
2021/12/16 15:36:42;;;;;;;59.20;24.67;;;;;;;;;;5001442;28;20056;-78
2021/12/16 15:44:51;;;;;;;53.42;22.55;;;;;;;;;;5037684;28;20073;-78
2021/12/16 15:47:17;;;;;;;44.40;20.65;;;;;;;;;;5027263;28;20052;-78
2021/12/16 15:49:43;;;;;;;54.95;18.95;;;;;;;;;;5022846;28;20564;-78
2021/12/16 15:52:09;;;;;;;35.30;17.10;;;;;;;;;;5033378;28;20147;-78
2021/12/16 15:54:36;;;;;;;43.70;17.70;;;;;;;;;;5017215;28;20111;-78
2021/12/16 15:57:02;;;;;;;64.88;19.75;;;;;;;;;;5020293;28;20041;-79
2021/12/16 15:59:29;;;;;;;59.33;19.88;;;;;;;;;;5003667;28;20044;-79
2021/12/16 16:01:55;;;;;;;44.65;19.48;;;;;;;;;;5021647;28;20919;-78
2021/12/16 16:04:22;;;;;;;39.00;19.10;;;;;;;;;;4979908;28;20124;-78
2021/12/16 16:06:49;;;;;;;66.55;21.55;;;;;;;;;;5008203;28;20041;-78
2021/12/16 16:09:15;;;;;;;40.13;20.00;;;;;;;;;;4982732;28;20041;-78
2021/12/16 16:11:46;;;;;;;56.70;19.15;;;;;;;;;;4985910;28;20037;-79
2021/12/16 16:14:12;;;;;;;57.72;21.48;;;;;;;;;;5015372;28;20350;-78
2021/12/16 16:16:44;;;;;;;65.97;21.48;;;;;;;;;;5003474;28;20108;-78
2021/12/16 16:19:10;;;;;;;56.83;21.13;;;;;;;;;;4995233;28;20076;-78
2021/12/16 16:21:44;;;;;;;47.05;20.15;;;;;;;;;;5008342;28;20053;-78
2021/12/16 16:24:13;;;;;;;61.88;22.83;;;;;;;;;;4996842;28;20059;-78
2021/12/16 16:26:39;;;;;;;65.13;22.52;;;;;;;;;;5016308;28;20088;-79
2021/12/16 16:29:06;;;;;;;47.33;19.90;;;;;;;;;;4981260;28;20514;-78
2021/12/16 16:31:33;;;;;;;58.45;21.83;;;;;;;;;;4984325;28;20052;-78
2021/12/16 16:33:59;;;;;;;75.85;23.83;;;;;;;;;;4974938;28;20053;-79
2021/12/16 16:36:26;;;;;;;52.30;21.45;;;;;;;;;;5004734;28;20045;-78
2021/12/16 16:39:04;;;;;;;53.30;22.67;;;;;;;;;;5006492;28;20041;-78
2021/12/16 16:41:31;;;;;;;68.75;23.50;;;;;;;;;;5008328;28;20037;-79
2021/12/16 16:43:59;;;;;;;60.15;22.95;;;;;;;;;;4998238;28;20033;-78
2021/12/16 16:46:30;;;;;;;62.17;21.75;;;;;;;;;;4991571;28;20490;-80
2021/12/16 16:51:29;;;;;;;51.88;21.70;;;;;;;;;;4979183;28;20057;-79
2021/12/16 16:54:00;;;;;;;71.40;23.48;;;;;;;;;;5010625;28;20545;-79
2021/12/16 16:56:33;;;;;;;111.75;29.33;;;;;;;;;;5017099;28;20044;-79
2021/12/16 16:59:01;;;;;;;50.13;24.35;;;;;;;;;;5033538;28;20501;-79
2021/12/16 17:01:27;;;;;;;56.15;23.20;;;;;;;;;;5013116;28;20058;-79
2021/12/16 17:03:53;;;;;;;107.13;27.70;;;;;;;;;;5021091;28;20064;-80
2021/12/16 17:06:20;;;;;;;120.90;28.13;;;;;;;;;;5016433;28;20049;-79
2021/12/16 17:08:46;;;;;;;88.00;27.23;;;;;;;;;;5002913;28;20045;-79
2021/12/16 17:11:16;;;;;;;68.18;25.40;;;;;;;;;;5020455;28;20036;-79
2021/12/16 17:18:47;;;;;;;57.45;24.52;;;;;;;;;;5033315;28;20048;-79
2021/12/16 17:21:17;;;;;;;115.15;28.85;;;;;;;;;;4999322;28;20468;-80
2021/12/16 17:23:50;;;;;;;63.70;24.88;;;;;;;;;;5017328;28;20037;-79
2021/12/16 17:26:22;;;;;;;49.40;22.80;;;;;;;;;;5018076;28;20049;-80
2021/12/16 17:28:55;;;;;;;71.70;25.50;;;;;;;;;;5021424;28;20041;-80
2021/12/16 17:31:34;;;;;;;63.65;24.35;;;;;;;;;;5018849;28;20037;-81
2021/12/16 17:34:09;;;;;;;88.28;26.67;;;;;;;;;;5006069;28;20563;-81
2021/12/16 17:36:35;;;;;;;55.70;23.38;;;;;;;;;;5021944;28;20049;-80
2021/12/16 17:39:08;;;;;;;60.75;24.20;;;;;;;;;;5018791;28;20502;-80
2021/12/16 17:41:35;;;;;;;54.35;23.38;;;;;;;;;;5010722;28;20041;-80
2021/12/16 17:44:46;;;;;;;;;;;;;;;;;;;;;
2021/12/16 17:47:14;;;;;;;47.17;21.52;;;;;;;;;;5020250;28;20057;-86
2021/12/16 17:49:40;;;;;;;51.87;23.50;;;;;;;;;;5004924;28;20839;-80
2021/12/16 17:52:07;;;;;;;64.15;23.38;;;;;;;;;;5004568;28;21512;-81
2021/12/16 17:54:41;;;;;;;51.50;22.70;;;;;;;;;;4992338;28;20348;-80
2021/12/16 17:57:07;;;;;;;47.03;22.63;;;;;;;;;;5018588;28;20083;-80
2021/12/16 17:59:33;;;;;;;93.68;25.85;;;;;;;;;;5006790;28;20053;-80
2021/12/16 18:02:00;;;;;;;47.97;21.75;;;;;;;;;;5021278;28;20510;-80
2021/12/16 18:04:29;;;;;;;65.30;23.92;;;;;;;;;;5016787;28;20044;-82
2021/12/16 18:06:55;;;;;;;70.15;23.48;;;;;;;;;;5006065;28;20036;-84
2021/12/16 18:09:23;;;;;;;61.20;22.85;;;;;;;;;;5035161;28;20161;-87
2021/12/16 18:12:08;;;;;;;94.03;26.25;;;;;;;;;;5024845;28;20452;-86
2021/12/16 18:14:45;;;;;;;56.20;21.02;;;;;;;;;;5018104;28;20388;-85
2021/12/16 18:17:14;;;;;;;45.45;19.50;;;;;;;;;;4984777;28;20049;-84
2021/12/16 18:19:52;;;;;;;44.50;20.00;;;;;;;;;;5008841;28;20140;-84
2021/12/16 18:22:25;;;;;;;54.88;20.95;;;;;;;;;;5006955;28;20103;-84
2021/12/16 18:24:53;;;;;;;47.30;20.45;;;;;;;;;;5008642;28;20063;-84
2021/12/16 18:27:19;;;;;;;;;;;;;;;;;;4999936;28;20040;-84
2021/12/16 18:29:46;;;;;;;61.75;23.60;;;;;;;;;;5017302;28;19991;-85